sensor_id;sensor_type;location;lat;lon;timestamp;P1;durP1;ratioP1;P2;durP2;ratioP2
1721;SDS011;858;53.190;8.596;2023-03-05T00:00:13;10.07;;;3.10;;
1721;SDS011;858;53.190;8.596;2023-03-05T00:02:42;12.38;;;3.63;;
1721;SDS011;858;53.190;8.596;2023-03-05T00:05:08;13.82;;;3.28;;
1721;SDS011;858;53.190;8.596;2023-03-05T00:07:35;9.07;;;2.70;;
1721;SDS011;858;53.190;8.596;2023-03-05T00:10:02;8.45;;;2.30;;
1721;SDS011;858;53.190;8.596;2023-03-05T00:12:30;9.57;;;2.67;;
1721;SDS011;858;53.190;8.596;2023-03-05T00:14:57;9.18;;;3.10;;
1721;SDS011;858;53.190;8.596;2023-03-05T00:17:23;6.70;;;2.60;;
1721;SDS011;858;53.190;8.596;2023-03-05T00:19:51;13.65;;;2.60;;
1721;SDS011;858;53.190;8.596;2023-03-05T00:22:17;8.65;;;2.75;;
1721;SDS011;858;53.190;8.596;2023-03-05T00:24:43;7.10;;;2.70;;
1721;SDS011;858;53.190;8.596;2023-03-05T00:27:10;7.93;;;2.60;;
1721;SDS011;858;53.190;8.596;2023-03-05T00:29:38;8.98;;;2.58;;
1721;SDS011;858;53.190;8.596;2023-03-05T00:32:04;9.20;;;2.80;;
1721;SDS011;858;53.190;8.596;2023-03-05T00:34:31;8.70;;;2.80;;
1721;SDS011;858;53.190;8.596;2023-03-05T00:36:57;8.55;;;2.85;;
1721;SDS011;858;53.190;8.596;2023-03-05T00:39:23;9.93;;;2.63;;
1721;SDS011;858;53.190;8.596;2023-03-05T00:41:51;9.27;;;2.15;;
1721;SDS011;858;53.190;8.596;2023-03-05T00:44:18;7.90;;;2.45;;
1721;SDS011;858;53.190;8.596;2023-03-05T00:46:46;8.00;;;3.20;;
1721;SDS011;858;53.190;8.596;2023-03-05T00:49:12;5.75;;;3.05;;
1721;SDS011;858;53.190;8.596;2023-03-05T00:51:40;9.45;;;2.83;;
1721;SDS011;858;53.190;8.596;2023-03-05T00:54:06;10.02;;;3.80;;
1721;SDS011;858;53.190;8.596;2023-03-05T00:56:33;6.95;;;2.45;;
1721;SDS011;858;53.190;8.596;2023-03-05T00:58:59;4.00;;;1.65;;
1721;SDS011;858;53.190;8.596;2023-03-05T01:01:25;5.55;;;2.40;;
1721;SDS011;858;53.190;8.596;2023-03-05T01:03:53;4.35;;;1.92;;
1721;SDS011;858;53.190;8.596;2023-03-05T01:06:22;8.60;;;2.50;;
1721;SDS011;858;53.190;8.596;2023-03-05T01:08:50;7.70;;;2.30;;
1721;SDS011;858;53.190;8.596;2023-03-05T01:11:16;6.43;;;2.33;;
1721;SDS011;858;53.190;8.596;2023-03-05T01:13:43;9.55;;;2.88;;
1721;SDS011;858;53.190;8.596;2023-03-05T01:16:09;8.05;;;2.50;;
1721;SDS011;858;53.190;8.596;2023-03-05T01:18:36;7.77;;;2.60;;
1721;SDS011;858;53.190;8.596;2023-03-05T01:21:04;6.53;;;2.25;;
1721;SDS011;858;53.190;8.596;2023-03-05T01:23:31;5.90;;;2.20;;
1721;SDS011;858;53.190;8.596;2023-03-05T01:25:58;7.03;;;2.80;;
1721;SDS011;858;53.190;8.596;2023-03-05T01:28:25;8.27;;;2.50;;
1721;SDS011;858;53.190;8.596;2023-03-05T01:30:54;8.30;;;2.88;;
1721;SDS011;858;53.190;8.596;2023-03-05T01:33:21;4.32;;;2.10;;
1721;SDS011;858;53.190;8.596;2023-03-05T01:35:47;6.57;;;2.50;;
1721;SDS011;858;53.190;8.596;2023-03-05T01:38:15;5.55;;;2.20;;
1721;SDS011;858;53.190;8.596;2023-03-05T01:40:42;8.40;;;2.70;;
1721;SDS011;858;53.190;8.596;2023-03-05T01:43:18;9.18;;;2.58;;
1721;SDS011;858;53.190;8.596;2023-03-05T01:48:27;9.55;;;3.05;;
1721;SDS011;858;53.190;8.596;2023-03-05T01:50:53;7.25;;;2.50;;
1721;SDS011;858;53.190;8.596;2023-03-05T01:53:21;7.63;;;2.80;;
1721;SDS011;858;53.190;8.596;2023-03-05T01:55:48;6.97;;;2.28;;
1721;SDS011;858;53.190;8.596;2023-03-05T01:58:19;7.75;;;2.90;;
1721;SDS011;858;53.190;8.596;2023-03-05T02:00:46;9.35;;;2.10;;
1721;SDS011;858;53.190;8.596;2023-03-05T02:03:13;7.87;;;3.07;;
1721;SDS011;858;53.190;8.596;2023-03-05T02:05:41;10.93;;;2.70;;
1721;SDS011;858;53.190;8.596;2023-03-05T02:08:09;5.47;;;2.50;;
1721;SDS011;858;53.190;8.596;2023-03-05T02:10:37;7.07;;;2.13;;
1721;SDS011;858;53.190;8.596;2023-03-05T02:13:05;5.68;;;1.95;;
1721;SDS011;858;53.190;8.596;2023-03-05T02:15:32;3.67;;;1.90;;
1721;SDS011;858;53.190;8.596;2023-03-05T02:18:01;6.82;;;2.00;;
1721;SDS011;858;53.190;8.596;2023-03-05T02:20:28;5.78;;;1.70;;
1721;SDS011;858;53.190;8.596;2023-03-05T02:22:56;6.90;;;1.90;;
1721;SDS011;858;53.190;8.596;2023-03-05T02:25:23;2.97;;;1.60;;
1721;SDS011;858;53.190;8.596;2023-03-05T02:27:51;4.95;;;2.13;;
1721;SDS011;858;53.190;8.596;2023-03-05T02:30:19;4.45;;;2.10;;
1721;SDS011;858;53.190;8.596;2023-03-05T02:32:46;6.00;;;1.67;;
1721;SDS011;858;53.190;8.596;2023-03-05T02:35:12;5.00;;;2.00;;
1721;SDS011;858;53.190;8.596;2023-03-05T02:37:40;5.10;;;2.10;;
1721;SDS011;858;53.190;8.596;2023-03-05T02:40:11;6.28;;;1.80;;
1721;SDS011;858;53.190;8.596;2023-03-05T02:42:37;5.53;;;2.03;;
1721;SDS011;858;53.190;8.596;2023-03-05T02:45:04;7.78;;;2.00;;
1721;SDS011;858;53.190;8.596;2023-03-05T02:47:31;6.22;;;1.88;;
1721;SDS011;858;53.190;8.596;2023-03-05T02:49:57;5.82;;;2.20;;
1721;SDS011;858;53.190;8.596;2023-03-05T02:52:24;9.48;;;2.30;;
1721;SDS011;858;53.190;8.596;2023-03-05T02:54:51;4.60;;;2.00;;
1721;SDS011;858;53.190;8.596;2023-03-05T02:57:19;6.28;;;2.05;;
1721;SDS011;858;53.190;8.596;2023-03-05T02:59:45;6.00;;;1.60;;
1721;SDS011;858;53.190;8.596;2023-03-05T03:02:12;6.28;;;2.10;;
1721;SDS011;858;53.190;8.596;2023-03-05T03:04:39;4.78;;;2.00;;
1721;SDS011;858;53.190;8.596;2023-03-05T03:07:05;5.60;;;1.70;;
1721;SDS011;858;53.190;8.596;2023-03-05T03:09:32;4.78;;;1.80;;
1721;SDS011;858;53.190;8.596;2023-03-05T03:11:59;4.47;;;1.80;;
1721;SDS011;858;53.190;8.596;2023-03-05T03:14:29;7.83;;;1.90;;
1721;SDS011;858;53.190;8.596;2023-03-05T03:16:55;8.65;;;2.60;;
1721;SDS011;858;53.190;8.596;2023-03-05T03:19:22;6.05;;;2.00;;
1721;SDS011;858;53.190;8.596;2023-03-05T03:21:48;3.78;;;1.77;;
1721;SDS011;858;53.190;8.596;2023-03-05T03:24:14;8.82;;;2.10;;
1721;SDS011;858;53.190;8.596;2023-03-05T03:26:41;10.55;;;2.28;;
1721;SDS011;858;53.190;8.596;2023-03-05T03:29:07;6.35;;;2.20;;
1721;SDS011;858;53.190;8.596;2023-03-05T03:31:35;3.95;;;2.60;;
1721;SDS011;858;53.190;8.596;2023-03-05T03:34:05;7.32;;;2.67;;
1721;SDS011;858;53.190;8.596;2023-03-05T03:36:32;6.07;;;2.20;;
1721;SDS011;858;53.190;8.596;2023-03-05T03:38:58;5.60;;;2.22;;
1721;SDS011;858;53.190;8.596;2023-03-05T03:41:25;5.18;;;2.10;;
1721;SDS011;858;53.190;8.596;2023-03-05T03:43:52;6.22;;;2.50;;
1721;SDS011;858;53.190;8.596;2023-03-05T03:46:19;7.13;;;2.47;;
1721;SDS011;858;53.190;8.596;2023-03-05T03:48:49;7.55;;;2.60;;
1721;SDS011;858;53.190;8.596;2023-03-05T03:51:16;5.05;;;2.17;;
1721;SDS011;858;53.190;8.596;2023-03-05T03:53:43;6.13;;;2.15;;
1721;SDS011;858;53.190;8.596;2023-03-05T03:56:09;6.20;;;2.35;;
1721;SDS011;858;53.190;8.596;2023-03-05T03:58:36;7.00;;;2.50;;
1721;SDS011;858;53.190;8.596;2023-03-05T04:01:02;5.72;;;1.90;;
1721;SDS011;858;53.190;8.596;2023-03-05T04:03:29;5.47;;;2.15;;
1721;SDS011;858;53.190;8.596;2023-03-05T04:05:56;3.47;;;2.30;;
1721;SDS011;858;53.190;8.596;2023-03-05T04:08:23;7.50;;;2.28;;
1721;SDS011;858;53.190;8.596;2023-03-05T04:10:49;7.40;;;2.45;;
1721;SDS011;858;53.190;8.596;2023-03-05T04:13:18;4.32;;;1.80;;
1721;SDS011;858;53.190;8.596;2023-03-05T04:15:44;6.35;;;2.38;;
1721;SDS011;858;53.190;8.596;2023-03-05T04:18:12;2.93;;;1.90;;
1721;SDS011;858;53.190;8.596;2023-03-05T04:20:38;4.90;;;2.00;;
1721;SDS011;858;53.190;8.596;2023-03-05T04:23:06;4.15;;;1.70;;
1721;SDS011;858;53.190;8.596;2023-03-05T04:25:33;5.93;;;2.17;;
1721;SDS011;858;53.190;8.596;2023-03-05T04:27:59;8.95;;;2.40;;
1721;SDS011;858;53.190;8.596;2023-03-05T04:30:26;5.13;;;1.80;;
1721;SDS011;858;53.190;8.596;2023-03-05T04:32:52;6.55;;;2.20;;
1721;SDS011;858;53.190;8.596;2023-03-05T04:35:19;5.40;;;2.30;;
1721;SDS011;858;53.190;8.596;2023-03-05T04:37:45;7.28;;;2.40;;
1721;SDS011;858;53.190;8.596;2023-03-05T04:40:14;5.38;;;2.10;;
1721;SDS011;858;53.190;8.596;2023-03-05T04:42:40;7.80;;;2.30;;
1721;SDS011;858;53.190;8.596;2023-03-05T04:45:07;5.57;;;1.90;;
1721;SDS011;858;53.190;8.596;2023-03-05T04:47:34;5.30;;;1.98;;
1721;SDS011;858;53.190;8.596;2023-03-05T04:50:01;4.63;;;2.17;;
1721;SDS011;858;53.190;8.596;2023-03-05T04:52:28;5.35;;;2.00;;
1721;SDS011;858;53.190;8.596;2023-03-05T04:54:55;7.13;;;2.00;;
1721;SDS011;858;53.190;8.596;2023-03-05T04:57:23;6.93;;;2.53;;
1721;SDS011;858;53.190;8.596;2023-03-05T04:59:49;6.00;;;2.10;;
1721;SDS011;858;53.190;8.596;2023-03-05T05:02:15;7.88;;;2.05;;
1721;SDS011;858;53.190;8.596;2023-03-05T05:04:42;4.57;;;2.10;;
1721;SDS011;858;53.190;8.596;2023-03-05T05:07:09;5.20;;;2.40;;
1721;SDS011;858;53.190;8.596;2023-03-05T05:09:37;3.70;;;2.00;;
1721;SDS011;858;53.190;8.596;2023-03-05T05:12:04;4.63;;;1.67;;
1721;SDS011;858;53.190;8.596;2023-03-05T05:14:31;6.32;;;1.85;;
1721;SDS011;858;53.190;8.596;2023-03-05T05:16:58;6.47;;;1.73;;
1721;SDS011;858;53.190;8.596;2023-03-05T05:19:25;6.80;;;1.90;;
1721;SDS011;858;53.190;8.596;2023-03-05T05:21:52;5.77;;;1.67;;
1721;SDS011;858;53.190;8.596;2023-03-05T05:24:18;4.55;;;1.80;;
1721;SDS011;858;53.190;8.596;2023-03-05T05:26:44;8.73;;;1.98;;
1721;SDS011;858;53.190;8.596;2023-03-05T05:29:11;5.00;;;2.10;;
1721;SDS011;858;53.190;8.596;2023-03-05T05:31:39;5.47;;;1.80;;
1721;SDS011;858;53.190;8.596;2023-03-05T05:34:05;4.65;;;1.60;;
1721;SDS011;858;53.190;8.596;2023-03-05T05:36:32;6.75;;;2.00;;
1721;SDS011;858;53.190;8.596;2023-03-05T05:38:58;3.70;;;2.10;;
1721;SDS011;858;53.190;8.596;2023-03-05T05:41:25;5.05;;;2.10;;
1721;SDS011;858;53.190;8.596;2023-03-05T05:43:51;8.20;;;2.00;;
1721;SDS011;858;53.190;8.596;2023-03-05T05:46:19;4.80;;;1.63;;
1721;SDS011;858;53.190;8.596;2023-03-05T05:48:49;6.05;;;2.50;;
1721;SDS011;858;53.190;8.596;2023-03-05T05:51:17;4.93;;;1.75;;
1721;SDS011;858;53.190;8.596;2023-03-05T05:53:44;6.40;;;1.70;;
1721;SDS011;858;53.190;8.596;2023-03-05T05:56:11;4.70;;;1.70;;
1721;SDS011;858;53.190;8.596;2023-03-05T05:58:38;7.95;;;2.00;;
1721;SDS011;858;53.190;8.596;2023-03-05T06:01:10;4.68;;;1.88;;
1721;SDS011;858;53.190;8.596;2023-03-05T06:03:37;6.50;;;1.90;;
1721;SDS011;858;53.190;8.596;2023-03-05T06:06:08;6.35;;;2.10;;
1721;SDS011;858;53.190;8.596;2023-03-05T06:08:34;5.90;;;1.55;;
1721;SDS011;858;53.190;8.596;2023-03-05T06:11:01;4.53;;;1.70;;
1721;SDS011;858;53.190;8.596;2023-03-05T06:13:27;4.13;;;1.70;;
1721;SDS011;858;53.190;8.596;2023-03-05T06:15:55;9.32;;;2.53;;
1721;SDS011;858;53.190;8.596;2023-03-05T06:18:21;4.70;;;1.98;;
1721;SDS011;858;53.190;8.596;2023-03-05T06:20:52;6.10;;;2.20;;
1721;SDS011;858;53.190;8.596;2023-03-05T06:23:20;5.25;;;2.38;;
1721;SDS011;858;53.190;8.596;2023-03-05T06:25:47;5.78;;;2.15;;
1721;SDS011;858;53.190;8.596;2023-03-05T06:28:13;7.67;;;2.23;;
1721;SDS011;858;53.190;8.596;2023-03-05T06:30:39;9.40;;;2.95;;
1721;SDS011;858;53.190;8.596;2023-03-05T06:33:06;4.82;;;1.80;;
1721;SDS011;858;53.190;8.596;2023-03-05T06:35:32;4.28;;;2.10;;
1721;SDS011;858;53.190;8.596;2023-03-05T06:37:59;4.47;;;1.80;;
1721;SDS011;858;53.190;8.596;2023-03-05T06:40:27;4.25;;;2.15;;
1721;SDS011;858;53.190;8.596;2023-03-05T06:42:53;6.20;;;2.20;;
1721;SDS011;858;53.190;8.596;2023-03-05T06:45:19;3.63;;;1.70;;
1721;SDS011;858;53.190;8.596;2023-03-05T06:47:46;5.15;;;2.13;;
1721;SDS011;858;53.190;8.596;2023-03-05T06:50:12;7.47;;;2.20;;
1721;SDS011;858;53.190;8.596;2023-03-05T06:52:39;4.53;;;1.90;;
1721;SDS011;858;53.190;8.596;2023-03-05T06:55:06;6.10;;;2.10;;
1721;SDS011;858;53.190;8.596;2023-03-05T06:57:34;6.70;;;2.60;;
1721;SDS011;858;53.190;8.596;2023-03-05T07:00:02;4.97;;;2.17;;
1721;SDS011;858;53.190;8.596;2023-03-05T07:02:33;4.95;;;2.47;;
1721;SDS011;858;53.190;8.596;2023-03-05T07:04:59;6.88;;;2.47;;
1721;SDS011;858;53.190;8.596;2023-03-05T07:07:27;5.00;;;2.50;;
1721;SDS011;858;53.190;8.596;2023-03-05T07:09:53;5.80;;;3.00;;
1721;SDS011;858;53.190;8.596;2023-03-05T07:12:21;7.93;;;4.20;;
1721;SDS011;858;53.190;8.596;2023-03-05T07:14:49;10.50;;;4.20;;
1721;SDS011;858;53.190;8.596;2023-03-05T07:17:16;6.88;;;4.40;;
1721;SDS011;858;53.190;8.596;2023-03-05T07:19:42;11.30;;;6.43;;
1721;SDS011;858;53.190;8.596;2023-03-05T07:22:09;11.40;;;6.30;;
1721;SDS011;858;53.190;8.596;2023-03-05T07:24:35;13.15;;;7.10;;
1721;SDS011;858;53.190;8.596;2023-03-05T07:27:02;10.02;;;6.03;;
1721;SDS011;858;53.190;8.596;2023-03-05T07:29:28;9.57;;;6.63;;
1721;SDS011;858;53.190;8.596;2023-03-05T07:31:56;12.10;;;6.40;;
1721;SDS011;858;53.190;8.596;2023-03-05T07:34:23;10.27;;;6.50;;
1721;SDS011;858;53.190;8.596;2023-03-05T07:36:49;8.35;;;4.57;;
1721;SDS011;858;53.190;8.596;2023-03-05T07:39:16;10.05;;;4.35;;
1721;SDS011;858;53.190;8.596;2023-03-05T07:41:43;6.20;;;4.28;;
1721;SDS011;858;53.190;8.596;2023-03-05T07:44:10;4.97;;;2.95;;
1721;SDS011;858;53.190;8.596;2023-03-05T07:46:36;4.85;;;2.85;;
1721;SDS011;858;53.190;8.596;2023-03-05T07:49:04;4.20;;;2.63;;
1721;SDS011;858;53.190;8.596;2023-03-05T07:51:31;5.40;;;3.33;;
1721;SDS011;858;53.190;8.596;2023-03-05T07:53:57;6.18;;;4.03;;
1721;SDS011;858;53.190;8.596;2023-03-05T07:56:24;8.13;;;4.00;;
1721;SDS011;858;53.190;8.596;2023-03-05T07:58:52;7.93;;;4.32;;
1721;SDS011;858;53.190;8.596;2023-03-05T08:01:19;8.70;;;4.70;;
1721;SDS011;858;53.190;8.596;2023-03-05T08:03:47;9.23;;;5.00;;
1721;SDS011;858;53.190;8.596;2023-03-05T08:06:14;8.77;;;5.40;;
1721;SDS011;858;53.190;8.596;2023-03-05T08:08:41;7.88;;;4.00;;
1721;SDS011;858;53.190;8.596;2023-03-05T08:11:10;6.15;;;3.40;;
1721;SDS011;858;53.190;8.596;2023-03-05T08:13:37;9.32;;;5.30;;
1721;SDS011;858;53.190;8.596;2023-03-05T08:16:04;6.72;;;4.90;;
1721;SDS011;858;53.190;8.596;2023-03-05T08:18:31;10.43;;;4.73;;
1721;SDS011;858;53.190;8.596;2023-03-05T08:20:57;9.13;;;4.65;;
1721;SDS011;858;53.190;8.596;2023-03-05T08:23:25;6.50;;;4.40;;
1721;SDS011;858;53.190;8.596;2023-03-05T08:25:51;6.75;;;3.80;;
1721;SDS011;858;53.190;8.596;2023-03-05T08:28:18;6.35;;;3.10;;
1721;SDS011;858;53.190;8.596;2023-03-05T08:30:45;6.20;;;2.97;;
1721;SDS011;858;53.190;8.596;2023-03-05T08:33:12;9.40;;;2.60;;
1721;SDS011;858;53.190;8.596;2023-03-05T08:35:39;5.40;;;2.20;;
1721;SDS011;858;53.190;8.596;2023-03-05T08:38:06;3.00;;;1.83;;
1721;SDS011;858;53.190;8.596;2023-03-05T08:40:34;3.67;;;2.10;;
1721;SDS011;858;53.190;8.596;2023-03-05T08:43:00;6.97;;;4.28;;
1721;SDS011;858;53.190;8.596;2023-03-05T08:45:28;7.97;;;4.15;;
1721;SDS011;858;53.190;8.596;2023-03-05T08:47:55;6.47;;;2.95;;
1721;SDS011;858;53.190;8.596;2023-03-05T08:50:21;3.20;;;1.90;;
1721;SDS011;858;53.190;8.596;2023-03-05T08:52:48;5.03;;;1.98;;
1721;SDS011;858;53.190;8.596;2023-03-05T08:55:15;5.80;;;2.47;;
1721;SDS011;858;53.190;8.596;2023-03-05T08:57:43;6.18;;;2.83;;
1721;SDS011;858;53.190;8.596;2023-03-05T09:00:10;5.45;;;3.13;;
1721;SDS011;858;53.190;8.596;2023-03-05T09:02:36;5.30;;;3.40;;
1721;SDS011;858;53.190;8.596;2023-03-05T09:05:03;10.20;;;3.40;;
1721;SDS011;858;53.190;8.596;2023-03-05T09:07:29;6.45;;;2.92;;
1721;SDS011;858;53.190;8.596;2023-03-05T09:09:56;6.18;;;3.03;;
1721;SDS011;858;53.190;8.596;2023-03-05T09:12:22;6.30;;;3.35;;
1721;SDS011;858;53.190;8.596;2023-03-05T09:14:50;7.00;;;3.40;;
1721;SDS011;858;53.190;8.596;2023-03-05T09:17:18;5.60;;;2.77;;
1721;SDS011;858;53.190;8.596;2023-03-05T09:19:45;6.18;;;3.10;;
1721;SDS011;858;53.190;8.596;2023-03-05T09:22:11;4.82;;;3.10;;
1721;SDS011;858;53.190;8.596;2023-03-05T09:24:38;7.55;;;3.75;;
1721;SDS011;858;53.190;8.596;2023-03-05T09:27:04;5.97;;;3.50;;
1721;SDS011;858;53.190;8.596;2023-03-05T09:29:31;7.40;;;3.10;;
1721;SDS011;858;53.190;8.596;2023-03-05T09:31:59;9.20;;;2.30;;
1721;SDS011;858;53.190;8.596;2023-03-05T09:34:25;7.63;;;2.85;;
1721;SDS011;858;53.190;8.596;2023-03-05T09:36:52;3.50;;;2.00;;
1721;SDS011;858;53.190;8.596;2023-03-05T09:39:18;5.13;;;2.20;;
1721;SDS011;858;53.190;8.596;2023-03-05T09:41:50;6.57;;;2.42;;
1721;SDS011;858;53.190;8.596;2023-03-05T09:44:21;5.20;;;2.70;;
1721;SDS011;858;53.190;8.596;2023-03-05T09:46:50;5.25;;;3.20;;
1721;SDS011;858;53.190;8.596;2023-03-05T09:49:22;5.15;;;3.08;;
1721;SDS011;858;53.190;8.596;2023-03-05T09:51:56;5.50;;;3.30;;
1721;SDS011;858;53.190;8.596;2023-03-05T09:54:27;4.20;;;2.58;;
1721;SDS011;858;53.190;8.596;2023-03-05T09:56:56;4.85;;;2.00;;
1721;SDS011;858;53.190;8.596;2023-03-05T09:59:27;3.55;;;1.50;;
1721;SDS011;858;53.190;8.596;2023-03-05T10:01:56;3.80;;;2.00;;
1721;SDS011;858;53.190;8.596;2023-03-05T10:04:27;4.05;;;2.17;;
1721;SDS011;858;53.190;8.596;2023-03-05T10:06:55;5.20;;;2.60;;
1721;SDS011;858;53.190;8.596;2023-03-05T10:09:26;8.23;;;2.10;;
1721;SDS011;858;53.190;8.596;2023-03-05T10:11:56;2.87;;;1.70;;
1721;SDS011;858;53.190;8.596;2023-03-05T10:14:23;3.17;;;1.67;;
1721;SDS011;858;53.190;8.596;2023-03-05T10:16:52;3.00;;;1.40;;
1721;SDS011;858;53.190;8.596;2023-03-05T10:19:25;3.55;;;1.80;;
1721;SDS011;858;53.190;8.596;2023-03-05T10:22:02;3.20;;;2.30;;
1721;SDS011;858;53.190;8.596;2023-03-05T10:24:36;6.03;;;1.92;;
1721;SDS011;858;53.190;8.596;2023-03-05T10:27:06;6.18;;;1.90;;
1721;SDS011;858;53.190;8.596;2023-03-05T10:32:21;3.00;;;1.40;;
1721;SDS011;858;53.190;8.596;2023-03-05T10:34:55;3.60;;;1.70;;
1721;SDS011;858;53.190;8.596;2023-03-05T10:37:38;4.13;;;1.50;;
1721;SDS011;858;53.190;8.596;2023-03-05T10:40:15;3.70;;;1.20;;
1721;SDS011;858;53.190;8.596;2023-03-05T10:42:44;3.97;;;1.40;;
1721;SDS011;858;53.190;8.596;2023-03-05T10:45:14;4.00;;;1.40;;
1721;SDS011;858;53.190;8.596;2023-03-05T10:47:43;2.63;;;1.43;;
1721;SDS011;858;53.190;8.596;2023-03-05T10:50:14;3.80;;;1.20;;
1721;SDS011;858;53.190;8.596;2023-03-05T10:52:42;3.53;;;1.25;;
1721;SDS011;858;53.190;8.596;2023-03-05T10:55:13;4.13;;;1.38;;
1721;SDS011;858;53.190;8.596;2023-03-05T10:57:40;5.13;;;1.30;;
1721;SDS011;858;53.190;8.596;2023-03-05T11:00:10;3.03;;;1.00;;
1721;SDS011;858;53.190;8.596;2023-03-05T11:02:52;3.20;;;1.40;;
1721;SDS011;858;53.190;8.596;2023-03-05T11:05:30;3.78;;;1.23;;
1721;SDS011;858;53.190;8.596;2023-03-05T11:08:09;3.35;;;1.30;;
1721;SDS011;858;53.190;8.596;2023-03-05T11:10:42;4.03;;;1.25;;
1721;SDS011;858;53.190;8.596;2023-03-05T11:13:19;2.10;;;1.20;;
1721;SDS011;858;53.190;8.596;2023-03-05T11:15:57;2.90;;;0.80;;
1721;SDS011;858;53.190;8.596;2023-03-05T11:18:25;5.90;;;3.47;;
1721;SDS011;858;53.190;8.596;2023-03-05T11:21:05;4.32;;;3.92;;
1721;SDS011;858;53.190;8.596;2023-03-05T11:23:33;3.78;;;2.42;;
1721;SDS011;858;53.190;8.596;2023-03-05T11:26:00;2.58;;;1.30;;
1721;SDS011;858;53.190;8.596;2023-03-05T11:28:31;3.00;;;1.50;;
1721;SDS011;858;53.190;8.596;2023-03-05T11:31:03;9.02;;;6.70;;
1721;SDS011;858;53.190;8.596;2023-03-05T11:33:31;3.08;;;2.80;;
1721;SDS011;858;53.190;8.596;2023-03-05T11:38:54;3.30;;;1.50;;
1721;SDS011;858;53.190;8.596;2023-03-05T11:41:23;2.35;;;1.20;;
1721;SDS011;858;53.190;8.596;2023-03-05T11:43:51;4.22;;;1.60;;
1721;SDS011;858;53.190;8.596;2023-03-05T11:46:19;7.53;;;2.80;;
1721;SDS011;858;53.190;8.596;2023-03-05T11:48:46;2.47;;;2.10;;
1721;SDS011;858;53.190;8.596;2023-03-05T11:51:14;6.72;;;2.40;;
1721;SDS011;858;53.190;8.596;2023-03-05T11:53:43;3.45;;;2.30;;
1721;SDS011;858;53.190;8.596;2023-03-05T11:56:13;2.58;;;1.70;;
1721;SDS011;858;53.190;8.596;2023-03-05T11:58:42;4.82;;;2.65;;
1721;SDS011;858;53.190;8.596;2023-03-05T12:01:13;3.15;;;2.45;;
1721;SDS011;858;53.190;8.596;2023-03-05T12:03:40;4.10;;;2.05;;
1721;SDS011;858;53.190;8.596;2023-03-05T12:06:09;4.38;;;2.30;;
1721;SDS011;858;53.190;8.596;2023-03-05T12:08:40;4.95;;;3.80;;
1721;SDS011;858;53.190;8.596;2023-03-05T12:11:10;3.90;;;3.08;;
1721;SDS011;858;53.190;8.596;2023-03-05T12:13:40;7.63;;;3.97;;
1721;SDS011;858;53.190;8.596;2023-03-05T12:16:11;6.22;;;5.63;;
1721;SDS011;858;53.190;8.596;2023-03-05T12:18:42;6.28;;;4.20;;
1721;SDS011;858;53.190;8.596;2023-03-05T12:21:13;4.60;;;3.40;;
1721;SDS011;858;53.190;8.596;2023-03-05T12:23:45;5.13;;;2.67;;
1721;SDS011;858;53.190;8.596;2023-03-05T12:26:12;4.50;;;2.83;;
1721;SDS011;858;53.190;8.596;2023-03-05T12:28:53;4.45;;;2.00;;
1721;SDS011;858;53.190;8.596;2023-03-05T12:31:25;4.72;;;2.10;;
1721;SDS011;858;53.190;8.596;2023-03-05T12:33:51;2.47;;;1.50;;
1721;SDS011;858;53.190;8.596;2023-03-05T12:36:36;2.90;;;1.38;;
1721;SDS011;858;53.190;8.596;2023-03-05T12:41:47;4.72;;;2.13;;
1721;SDS011;858;53.190;8.596;2023-03-05T12:44:19;5.97;;;2.97;;
1721;SDS011;858;53.190;8.596;2023-03-05T12:49:36;4.73;;;2.60;;
1721;SDS011;858;53.190;8.596;2023-03-05T12:52:02;5.05;;;2.55;;
1721;SDS011;858;53.190;8.596;2023-03-05T12:54:31;3.47;;;2.58;;
1721;SDS011;858;53.190;8.596;2023-03-05T12:56:58;4.90;;;3.10;;
1721;SDS011;858;53.190;8.596;2023-03-05T12:59:28;3.88;;;1.90;;
1721;SDS011;858;53.190;8.596;2023-03-05T13:01:58;4.40;;;1.57;;
1721;SDS011;858;53.190;8.596;2023-03-05T13:04:27;3.05;;;0.90;;
1721;SDS011;858;53.190;8.596;2023-03-05T13:06:57;2.65;;;0.70;;
1721;SDS011;858;53.190;8.596;2023-03-05T13:09:24;3.72;;;1.00;;
1721;SDS011;858;53.190;8.596;2023-03-05T13:11:51;2.28;;;1.27;;
1721;SDS011;858;53.190;8.596;2023-03-05T13:14:25;5.75;;;2.15;;
1721;SDS011;858;53.190;8.596;2023-03-05T13:16:54;6.15;;;2.95;;
1721;SDS011;858;53.190;8.596;2023-03-05T13:19:20;4.82;;;2.20;;
1721;SDS011;858;53.190;8.596;2023-03-05T13:21:55;6.47;;;2.80;;
1721;SDS011;858;53.190;8.596;2023-03-05T13:24:22;2.75;;;2.53;;
1721;SDS011;858;53.190;8.596;2023-03-05T13:26:48;4.57;;;3.50;;
1721;SDS011;858;53.190;8.596;2023-03-05T13:29:15;4.85;;;4.15;;
1721;SDS011;858;53.190;8.596;2023-03-05T13:31:42;2.33;;;1.70;;
1721;SDS011;858;53.190;8.596;2023-03-05T13:34:13;3.15;;;1.80;;
1721;SDS011;858;53.190;8.596;2023-03-05T13:36:44;3.30;;;1.50;;
1721;SDS011;858;53.190;8.596;2023-03-05T13:39:15;5.28;;;2.30;;
1721;SDS011;858;53.190;8.596;2023-03-05T13:41:43;3.88;;;1.23;;
1721;SDS011;858;53.190;8.596;2023-03-05T13:44:20;2.47;;;1.80;;
1721;SDS011;858;53.190;8.596;2023-03-05T13:46:46;3.40;;;2.00;;
1721;SDS011;858;53.190;8.596;2023-03-05T13:49:20;4.05;;;1.90;;
1721;SDS011;858;53.190;8.596;2023-03-05T13:51:47;3.70;;;2.00;;
1721;SDS011;858;53.190;8.596;2023-03-05T13:54:15;3.58;;;1.50;;
1721;SDS011;858;53.190;8.596;2023-03-05T13:56:51;6.38;;;2.67;;
1721;SDS011;858;53.190;8.596;2023-03-05T13:59:19;6.20;;;3.00;;
1721;SDS011;858;53.190;8.596;2023-03-05T14:01:45;3.80;;;1.70;;
1721;SDS011;858;53.190;8.596;2023-03-05T14:04:18;4.97;;;3.20;;
1721;SDS011;858;53.190;8.596;2023-03-05T14:06:46;8.07;;;6.55;;
1721;SDS011;858;53.190;8.596;2023-03-05T14:09:17;6.03;;;5.50;;
1721;SDS011;858;53.190;8.596;2023-03-05T14:11:50;4.90;;;3.30;;
1721;SDS011;858;53.190;8.596;2023-03-05T14:14:17;3.58;;;2.63;;
1721;SDS011;858;53.190;8.596;2023-03-05T14:16:45;3.33;;;1.70;;
1721;SDS011;858;53.190;8.596;2023-03-05T14:19:27;5.07;;;1.40;;
1721;SDS011;858;53.190;8.596;2023-03-05T14:21:55;5.93;;;2.00;;
1721;SDS011;858;53.190;8.596;2023-03-05T14:24:23;3.40;;;1.10;;
1721;SDS011;858;53.190;8.596;2023-03-05T14:26:51;3.90;;;0.90;;
1721;SDS011;858;53.190;8.596;2023-03-05T14:29:20;2.20;;;0.90;;
1721;SDS011;858;53.190;8.596;2023-03-05T14:31:48;1.50;;;0.80;;
1721;SDS011;858;53.190;8.596;2023-03-05T14:34:18;3.37;;;1.33;;
1721;SDS011;858;53.190;8.596;2023-03-05T14:36:47;1.90;;;1.20;;
1721;SDS011;858;53.190;8.596;2023-03-05T14:39:23;3.97;;;1.20;;
1721;SDS011;858;53.190;8.596;2023-03-05T14:41:51;3.30;;;1.77;;
1721;SDS011;858;53.190;8.596;2023-03-05T14:44:17;3.17;;;1.20;;
1721;SDS011;858;53.190;8.596;2023-03-05T14:46:47;2.28;;;0.95;;
1721;SDS011;858;53.190;8.596;2023-03-05T14:49:14;3.22;;;0.93;;
1721;SDS011;858;53.190;8.596;2023-03-05T14:51:41;2.70;;;1.58;;
1721;SDS011;858;53.190;8.596;2023-03-05T14:54:17;3.30;;;1.73;;
1721;SDS011;858;53.190;8.596;2023-03-05T14:56:44;3.22;;;1.70;;
1721;SDS011;858;53.190;8.596;2023-03-05T14:59:11;3.42;;;2.95;;
1721;SDS011;858;53.190;8.596;2023-03-05T15:01:38;4.35;;;2.67;;
1721;SDS011;858;53.190;8.596;2023-03-05T15:04:04;2.67;;;2.45;;
1721;SDS011;858;53.190;8.596;2023-03-05T15:06:31;3.67;;;2.33;;
1721;SDS011;858;53.190;8.596;2023-03-05T15:08:58;3.97;;;2.08;;
1721;SDS011;858;53.190;8.596;2023-03-05T15:11:26;2.30;;;2.10;;
1721;SDS011;858;53.190;8.596;2023-03-05T15:13:52;3.70;;;2.00;;
1721;SDS011;858;53.190;8.596;2023-03-05T15:16:19;2.28;;;2.08;;
1721;SDS011;858;53.190;8.596;2023-03-05T15:18:46;3.53;;;1.50;;
1721;SDS011;858;53.190;8.596;2023-03-05T15:21:12;1.85;;;1.10;;
1721;SDS011;858;53.190;8.596;2023-03-05T15:23:39;1.60;;;0.80;;
1721;SDS011;858;53.190;8.596;2023-03-05T15:26:06;1.70;;;1.20;;
1721;SDS011;858;53.190;8.596;2023-03-05T15:28:35;3.45;;;1.80;;
1721;SDS011;858;53.190;8.596;2023-03-05T15:31:02;2.50;;;2.00;;
1721;SDS011;858;53.190;8.596;2023-03-05T15:33:29;2.95;;;1.90;;
1721;SDS011;858;53.190;8.596;2023-03-05T15:35:55;1.40;;;1.23;;
1721;SDS011;858;53.190;8.596;2023-03-05T15:38:22;1.63;;;1.15;;
1721;SDS011;858;53.190;8.596;2023-03-05T15:40:49;1.60;;;0.90;;
1721;SDS011;858;53.190;8.596;2023-03-05T15:43:16;1.90;;;1.20;;
1721;SDS011;858;53.190;8.596;2023-03-05T15:45:44;1.75;;;1.65;;
1721;SDS011;858;53.190;8.596;2023-03-05T15:48:10;3.97;;;2.33;;